createdAt,value
2023-05-14T00:01:34.895Z,101077.38
2023-05-14T00:04:02.258Z,101071.56
2023-05-14T00:06:29.219Z,101084.59
2023-05-14T00:08:55.876Z,101072.69
2023-05-14T00:11:22.713Z,101070.47
2023-05-14T00:13:50.539Z,101075.72
2023-05-14T00:16:17.212Z,101073.81
2023-05-14T00:18:44.261Z,101075.72
2023-05-14T00:21:11.058Z,101073.00
2023-05-14T00:23:37.708Z,101070.19
2023-05-14T00:26:04.506Z,101065.19
2023-05-14T00:28:31.137Z,101062.44
2023-05-14T00:30:57.783Z,101057.47
2023-05-14T00:33:24.448Z,101051.66
2023-05-14T00:35:51.198Z,101050.84
2023-05-14T00:38:17.871Z,101051.63
2023-05-14T00:40:44.779Z,101046.94
2023-05-14T00:43:12.305Z,101051.09
2023-05-14T00:45:39.218Z,101048.06
2023-05-14T00:48:05.904Z,101050.84
2023-05-14T00:50:32.638Z,101052.53
2023-05-14T00:52:59.357Z,101049.22
2023-05-14T00:55:26.568Z,101056.94
2023-05-14T00:57:56.366Z,101050.03
2023-05-14T01:00:23.393Z,101045.63
2023-05-14T01:02:50.448Z,101055.56
2023-05-14T01:05:17.466Z,101046.38
2023-05-14T01:07:51.904Z,101044.72
2023-05-14T01:10:27.632Z,101042.78
2023-05-14T01:13:07.756Z,101045.31
2023-05-14T01:15:37.728Z,101037.06
2023-05-14T01:18:13.855Z,101037.06
2023-05-14T01:20:40.684Z,101035.09
2023-05-14T01:23:07.438Z,101037.00
2023-05-14T01:25:34.228Z,101037.63
2023-05-14T01:28:17.698Z,101031.78
2023-05-14T01:30:47.013Z,101030.41
2023-05-14T01:33:16.524Z,101028.81
2023-05-14T01:35:43.635Z,101029.91
2023-05-14T01:38:13.485Z,101029.91
2023-05-14T01:40:41.900Z,101028.25
2023-05-14T01:43:11.093Z,101021.34
2023-05-14T01:45:37.950Z,101023.28
2023-05-14T01:48:05.721Z,101020.81
2023-05-14T01:50:32.544Z,101017.75
2023-05-14T01:52:59.217Z,101017.19
2023-05-14T01:55:25.973Z,101009.19
2023-05-14T01:57:53.496Z,101017.50
2023-05-14T02:00:21.184Z,101019.69
2023-05-14T02:02:48.215Z,101016.13
2023-05-14T02:05:15.077Z,101022.16
2023-05-14T02:07:41.841Z,101024.41
2023-05-14T02:10:09.284Z,101026.06
2023-05-14T02:12:36.083Z,101023.84
2023-05-14T02:15:04.141Z,101019.97
2023-05-14T02:17:31.261Z,101024.09
2023-05-14T02:19:57.990Z,101014.44
2023-05-14T02:22:24.709Z,101014.16
2023-05-14T02:24:51.294Z,101012.22
2023-05-14T02:27:17.901Z,101002.84
2023-05-14T02:29:45.141Z,101020.78
2023-05-14T02:32:11.784Z,101015.53
2023-05-14T02:34:38.463Z,101011.66
2023-05-14T02:37:05.388Z,101022.16
2023-05-14T02:39:32.079Z,101014.44
2023-05-14T02:41:58.686Z,101004.47
2023-05-14T02:44:25.501Z,100996.16
2023-05-14T02:46:52.292Z,100992.84
2023-05-14T02:49:18.901Z,100989.00
2023-05-14T02:51:45.553Z,100996.19
2023-05-14T02:54:12.281Z,100990.94
2023-05-14T02:56:39.021Z,100986.81
2023-05-14T02:59:05.752Z,100979.63
2023-05-14T03:01:33.017Z,100981.84
2023-05-14T03:04:00.200Z,100991.22
2023-05-14T03:06:26.845Z,100992.28
2023-05-14T03:08:53.509Z,100984.00
2023-05-14T03:11:20.144Z,100989.00
2023-05-14T03:13:46.757Z,100993.94
2023-05-14T03:16:13.362Z,100987.88
2023-05-14T03:18:40.159Z,100986.50
2023-05-14T03:21:06.902Z,100995.91
2023-05-14T03:23:33.635Z,100991.78
2023-05-14T03:26:00.438Z,100994.81
2023-05-14T03:28:27.189Z,100992.28
2023-05-14T03:30:53.881Z,101004.47
2023-05-14T03:33:23.695Z,101000.91
2023-05-14T03:35:50.552Z,101001.72
2023-05-14T03:38:20.458Z,100994.53
2023-05-14T03:40:47.230Z,100991.22
2023-05-14T03:43:13.995Z,100989.25
2023-05-14T03:45:40.700Z,100986.75
2023-05-14T03:48:10.061Z,100973.41
2023-05-14T03:50:36.870Z,100984.00
2023-05-14T03:53:03.633Z,100988.69
2023-05-14T03:55:30.270Z,100977.13
2023-05-14T03:57:56.903Z,100979.03
2023-05-14T04:00:23.950Z,100981.28
2023-05-14T04:02:50.899Z,100985.66
2023-05-14T04:05:17.594Z,100985.38
2023-05-14T04:07:44.207Z,100987.56
2023-05-14T04:10:10.902Z,100977.88
2023-05-14T04:12:37.899Z,100971.75
2023-05-14T04:15:05.401Z,100973.91
2023-05-14T04:17:33.055Z,100971.69
2023-05-14T04:20:01.229Z,100972.81
2023-05-14T04:22:28.047Z,100964.19
2023-05-14T04:24:54.711Z,100966.59
2023-05-14T04:27:21.619Z,100966.88
2023-05-14T04:29:49.231Z,100966.59
2023-05-14T04:32:16.044Z,100974.31
2023-05-14T04:34:42.785Z,100963.72
2023-05-14T04:37:09.492Z,100964.03
2023-05-14T04:39:36.154Z,100959.28
2023-05-14T04:42:05.842Z,100962.84
2023-05-14T04:44:34.315Z,100960.16
2023-05-14T04:47:01.093Z,100958.19
2023-05-14T04:49:27.924Z,100957.72
2023-05-14T04:51:54.657Z,100954.59
2023-05-14T04:54:21.473Z,100959.38
2023-05-14T04:56:48.233Z,100950.50
2023-05-14T04:59:14.864Z,100943.09
2023-05-14T05:01:41.556Z,100946.78
2023-05-14T05:04:08.266Z,100940.13
2023-05-14T05:06:34.971Z,100937.88
2023-05-14T05:09:02.424Z,100938.19
2023-05-14T05:11:29.099Z,100938.41
2023-05-14T05:13:57.896Z,100936.31
2023-05-14T05:16:24.601Z,100935.31
2023-05-14T05:18:51.420Z,100930.50
2023-05-14T05:21:18.115Z,100936.66
2023-05-14T05:23:44.775Z,100937.34
2023-05-14T05:26:11.486Z,100938.31
2023-05-14T05:28:38.212Z,100930.63
2023-05-14T05:31:05.442Z,100932.72
2023-05-14T05:33:32.167Z,100929.41
2023-05-14T05:35:58.796Z,100940.97
2023-05-14T05:38:25.483Z,100934.84
2023-05-14T05:40:52.374Z,100930.63
2023-05-14T05:43:19.021Z,100931.25
2023-05-14T05:45:45.722Z,100933.31
2023-05-14T05:48:12.404Z,100934.13
2023-05-14T05:50:39.154Z,100929.34
2023-05-14T05:53:05.863Z,100932.31
2023-05-14T05:55:32.545Z,100923.66
2023-05-14T05:57:59.234Z,100931.81
2023-05-14T06:00:26.152Z,100926.09
2023-05-14T06:02:53.042Z,100925.81
2023-05-14T06:05:22.429Z,100918.78
2023-05-14T06:07:49.207Z,100920.03
2023-05-14T06:10:15.851Z,100918.78
2023-05-14T06:12:42.630Z,100912.03
2023-05-14T06:15:09.874Z,100913.44
2023-05-14T06:17:36.632Z,100913.78
2023-05-14T06:20:03.486Z,100916.41
2023-05-14T06:22:30.206Z,100907.63
2023-05-14T06:24:57.082Z,100916.34
2023-05-14T06:27:23.726Z,100914.38
2023-05-14T06:29:50.372Z,100914.84
2023-05-14T06:32:17.106Z,100902.22
2023-05-14T06:34:43.812Z,100903.72
2023-05-14T06:37:10.971Z,100901.25
2023-05-14T06:39:38.070Z,100895.91
2023-05-14T06:42:05.161Z,100896.13
2023-05-14T06:44:32.466Z,100891.22
2023-05-14T06:46:59.134Z,100885.81
2023-05-14T06:49:25.825Z,100896.72
2023-05-14T06:51:52.480Z,100890.03
2023-05-14T06:54:19.213Z,100889.09
2023-05-14T06:56:46.725Z,100889.44
2023-05-14T06:59:13.351Z,100893.72
2023-05-14T07:01:39.975Z,100880.06
2023-05-14T07:04:06.720Z,100882.06
2023-05-14T07:06:33.369Z,100882.06
2023-05-14T07:09:01.628Z,100886.69
2023-05-14T07:11:28.277Z,100872.84
2023-05-14T07:13:54.976Z,100868.75
2023-05-14T07:16:21.765Z,100868.59
2023-05-14T07:18:48.449Z,100870.91
2023-05-14T07:21:15.383Z,100879.00
2023-05-14T07:23:42.069Z,100871.25
2023-05-14T07:26:08.847Z,100869.78
2023-05-14T07:28:35.878Z,100858.44
2023-05-14T07:31:03.256Z,100864.50
2023-05-14T07:33:29.936Z,100863.66
2023-05-14T07:35:56.586Z,100868.97
2023-05-14T07:38:23.326Z,100860.03
2023-05-14T07:40:49.906Z,100860.00
2023-05-14T07:43:16.561Z,100854.38
2023-05-14T07:45:43.224Z,100859.53
2023-05-14T07:48:10.040Z,100863.94
2023-05-14T07:50:37.711Z,100860.31
2023-05-14T07:53:04.365Z,100856.34
2023-05-14T07:55:31.221Z,100853.88
2023-05-14T07:57:57.870Z,100857.66
2023-05-14T08:00:24.678Z,100852.84
2023-05-14T08:02:51.677Z,100841.31
2023-05-14T08:05:18.511Z,100845.06
2023-05-14T08:07:45.186Z,100836.84
2023-05-14T08:10:11.833Z,100833.88
2023-05-14T08:12:38.624Z,100831.00
2023-05-14T08:15:06.908Z,100833.31
2023-05-14T08:17:33.987Z,100821.38
2023-05-14T08:20:00.668Z,100827.72
2023-05-14T08:22:27.391Z,100823.31
2023-05-14T08:24:54.031Z,100825.59
2023-05-14T08:27:20.677Z,100818.56
2023-05-14T08:29:47.313Z,100817.00
2023-05-14T08:32:22.703Z,100812.28
2023-05-14T08:34:51.256Z,100815.50
2023-05-14T08:37:17.918Z,100813.63
2023-05-14T08:39:44.627Z,100811.19
2023-05-14T08:42:13.519Z,100812.44
2023-05-14T08:44:49.956Z,100808.22
2023-05-14T08:47:18.722Z,100813.50
2023-05-14T08:49:47.608Z,100802.97
2023-05-14T08:52:16.473Z,100802.84
2023-05-14T08:54:43.480Z,100792.94
2023-05-14T08:57:11.188Z,100790.50
2023-05-14T08:59:37.934Z,100789.50
2023-05-14T09:02:05.841Z,100787.19
2023-05-14T09:04:32.793Z,100787.69
2023-05-14T09:07:02.166Z,100792.91
2023-05-14T09:09:29.721Z,100788.59
2023-05-14T09:11:56.564Z,100788.91
2023-05-14T09:14:23.491Z,100787.19
2023-05-14T09:16:51.296Z,100783.97
2023-05-14T09:19:18.891Z,100760.31
2023-05-14T09:21:46.742Z,100772.88
2023-05-14T09:24:24.300Z,100771.41
2023-05-14T09:26:53.715Z,100762.41
2023-05-14T09:29:20.598Z,100756.56
2023-05-14T09:31:50.634Z,100761.09
2023-05-14T09:34:25.047Z,100751.28
2023-05-14T09:37:11.926Z,100750.78
2023-05-14T09:39:39.274Z,100741.66
2023-05-14T09:42:06.236Z,100744.25
2023-05-14T09:44:32.933Z,100736.31
2023-05-14T09:46:59.706Z,100733.41
2023-05-14T09:49:26.410Z,100736.44
2023-05-14T09:51:53.330Z,100737.72
2023-05-14T09:54:20.131Z,100729.63
2023-05-14T09:56:46.724Z,100731.41
2023-05-14T09:59:13.395Z,100732.44
2023-05-14T10:01:43.256Z,100734.91
2023-05-14T10:04:11.354Z,100736.53
2023-05-14T10:06:39.504Z,100730.81
2023-05-14T10:09:12.307Z,100735.50
2023-05-14T10:11:44.693Z,100735.72
2023-05-14T10:14:20.709Z,100732.19
2023-05-14T10:16:50.432Z,100727.13
2023-05-14T10:19:20.077Z,100728.59
2023-05-14T10:21:57.247Z,100721.22
2023-05-14T10:24:25.993Z,100723.41
2023-05-14T10:26:53.863Z,100718.50
2023-05-14T10:29:20.468Z,100718.88
2023-05-14T10:31:49.384Z,100715.56
2023-05-14T10:34:38.965Z,100712.06
2023-05-14T10:37:11.543Z,100713.06
2023-05-14T10:39:50.492Z,100701.47
2023-05-14T10:42:18.109Z,100699.09
2023-05-14T10:44:54.026Z,100693.00
2023-05-14T10:47:21.351Z,100681.91
2023-05-14T10:49:48.757Z,100689.72
2023-05-14T10:52:18.945Z,100690.91
2023-05-14T10:54:57.141Z,100685.97
2023-05-14T10:57:30.547Z,100678.38
2023-05-14T10:59:59.924Z,100679.56
2023-05-14T11:02:38.209Z,100680.56
2023-05-14T11:05:06.657Z,100683.56
2023-05-14T11:07:35.958Z,100677.16
2023-05-14T11:10:12.158Z,100676.06
2023-05-14T11:12:40.548Z,100672.41
2023-05-14T11:15:09.810Z,100663.88
2023-05-14T11:17:37.848Z,100668.38
2023-05-14T11:20:05.619Z,100662.66
2023-05-14T11:22:32.266Z,100661.22
2023-05-14T11:24:59.022Z,100664.16
2023-05-14T11:27:25.642Z,100665.31
2023-05-14T11:29:52.732Z,100662.16
2023-05-14T11:32:20.471Z,100667.44
2023-05-14T11:34:47.621Z,100665.66
2023-05-14T11:37:16.469Z,100673.81
2023-05-14T11:39:51.117Z,100660.00
2023-05-14T11:42:18.616Z,100660.19
2023-05-14T11:44:52.790Z,100663.19
2023-05-14T11:47:21.981Z,100664.72
2023-05-14T11:49:49.583Z,100659.75
2023-05-14T11:52:16.960Z,100659.97
2023-05-14T11:54:44.452Z,100648.00
2023-05-14T11:57:21.272Z,100649.34
2023-05-14T11:59:56.355Z,100652.84
2023-05-14T12:02:23.463Z,100646.59
2023-05-14T12:04:51.176Z,100641.88
2023-05-14T12:07:18.133Z,100651.75
2023-05-14T12:09:49.097Z,100649.50
2023-05-14T12:12:22.610Z,100646.69
2023-05-14T12:14:50.636Z,100656.94
2023-05-14T12:17:23.444Z,100655.13
2023-05-14T12:19:51.571Z,100647.94
2023-05-14T12:22:20.046Z,100659.97
2023-05-14T12:24:54.118Z,100647.66
2023-05-14T12:27:23.313Z,100649.13
2023-05-14T12:29:51.225Z,100636.31
2023-05-14T12:32:17.954Z,100644.38
2023-05-14T12:34:44.629Z,100635.84
2023-05-14T12:37:11.393Z,100643.75
2023-05-14T12:39:38.084Z,100635.72
2023-05-14T12:42:04.806Z,100638.81
2023-05-14T12:44:31.573Z,100626.81
2023-05-14T12:46:58.185Z,100635.34
2023-05-14T12:49:24.910Z,100629.31
2023-05-14T12:51:56.774Z,100626.81
2023-05-14T12:54:30.143Z,100617.66
2023-05-14T12:56:56.756Z,100609.25
2023-05-14T12:59:23.471Z,100599.25
2023-05-14T13:01:50.252Z,100596.28
2023-05-14T13:04:17.018Z,100594.66
2023-05-14T13:06:43.825Z,100595.00
2023-05-14T13:09:10.477Z,100589.06
2023-05-14T13:11:37.219Z,100585.63
2023-05-14T13:14:03.863Z,100592.53
2023-05-14T13:16:30.818Z,100592.84
2023-05-14T13:18:57.724Z,100586.47
2023-05-14T13:21:24.448Z,100580.53
2023-05-14T13:23:52.767Z,100579.22
2023-05-14T13:26:19.479Z,100574.31
2023-05-14T13:28:47.363Z,100577.78
2023-05-14T13:31:14.976Z,100574.97
2023-05-14T13:33:43.371Z,100575.31
2023-05-14T13:36:11.792Z,100577.78
2023-05-14T13:38:38.538Z,100575.63
2023-05-14T13:41:05.745Z,100562.97
2023-05-14T13:43:34.245Z,100551.16
2023-05-14T13:46:01.579Z,100547.91
2023-05-14T13:48:28.326Z,100544.75
2023-05-14T13:50:55.138Z,100537.03
2023-05-14T13:53:23.477Z,100538.69
2023-05-14T13:55:50.796Z,100539.03
2023-05-14T13:58:17.542Z,100539.16
2023-05-14T14:00:44.145Z,100539.81
2023-05-14T14:03:10.946Z,100544.09
2023-05-14T14:05:37.762Z,100541.97
2023-05-14T14:08:21.973Z,100537.69
2023-05-14T14:10:50.529Z,100537.56
2023-05-14T14:13:17.267Z,100533.09
2023-05-14T14:15:44.093Z,100539.19
2023-05-14T14:18:10.837Z,100532.78
2023-05-14T14:20:37.530Z,100543.59
2023-05-14T14:23:04.519Z,100542.94
2023-05-14T14:25:31.272Z,100532.94
2023-05-14T14:27:57.954Z,100532.59
2023-05-14T14:30:24.725Z,100537.69
2023-05-14T14:32:51.492Z,100536.06
2023-05-14T14:35:19.861Z,100536.69
2023-05-14T14:37:46.997Z,100539.69
2023-05-14T14:40:13.700Z,100542.63
2023-05-14T14:42:44.302Z,100528.81
2023-05-14T14:45:11.681Z,100516.34
2023-05-14T14:47:38.524Z,100530.63
2023-05-14T14:50:06.356Z,100512.22
2023-05-14T14:52:33.165Z,100504.19
2023-05-14T14:54:59.841Z,100495.31
2023-05-14T14:57:26.560Z,100497.59
2023-05-14T14:59:53.234Z,100497.13
2023-05-14T15:02:20.063Z,100478.38
2023-05-14T15:04:46.714Z,100479.69
2023-05-14T15:07:13.528Z,100469.19
2023-05-14T15:09:40.165Z,100479.84
2023-05-14T15:12:07.419Z,100471.19
2023-05-14T15:14:34.070Z,100459.34
2023-05-14T15:17:00.883Z,100447.31
2023-05-14T15:19:29.594Z,100437.31
2023-05-14T15:21:56.279Z,100435.34
2023-05-14T15:24:22.983Z,100423.53
2023-05-14T15:26:50.605Z,100417.63
2023-05-14T15:29:18.222Z,100407.13
2023-05-14T15:31:45.198Z,100408.25
2023-05-14T15:34:12.010Z,100406.50
2023-05-14T15:36:38.671Z,100412.22
2023-05-14T15:39:05.431Z,100415.69
2023-05-14T15:41:32.153Z,100419.78
2023-05-14T15:43:59.394Z,100442.28
2023-05-14T15:46:26.005Z,100434.25
2023-05-14T15:48:52.687Z,100430.47
2023-05-14T15:51:19.421Z,100431.94
2023-05-14T15:53:46.073Z,100433.09
2023-05-14T15:56:12.777Z,100438.19
2023-05-14T15:58:39.622Z,100438.69
2023-05-14T16:01:06.237Z,100434.09
2023-05-14T16:03:33.044Z,100447.38
2023-05-14T16:05:59.800Z,100453.97
2023-05-14T16:08:26.452Z,100465.13
2023-05-14T16:10:53.057Z,100461.69
2023-05-14T16:13:19.748Z,100457.09
2023-05-14T16:15:46.832Z,100449.53
2023-05-14T16:18:13.640Z,100449.72
2023-05-14T16:20:40.333Z,100454.97
2023-05-14T16:23:07.034Z,100455.63
2023-05-14T16:25:33.732Z,100451.38
2023-05-14T16:28:00.581Z,100465.66
2023-05-14T16:30:30.120Z,100465.50
2023-05-14T16:32:56.865Z,100468.13
2023-05-14T16:35:23.598Z,100458.31
2023-05-14T16:37:50.389Z,100462.88
2023-05-14T16:40:17.129Z,100455.00
2023-05-14T16:42:43.861Z,100448.63
2023-05-14T16:45:11.109Z,100447.13
2023-05-14T16:47:37.799Z,100432.34
2023-05-14T16:50:04.660Z,100425.00
2023-05-14T16:52:31.352Z,100413.66
2023-05-14T16:54:57.994Z,100407.44
2023-05-14T16:57:24.583Z,100409.22
2023-05-14T16:59:51.305Z,100407.75
2023-05-14T17:02:17.952Z,100399.72
2023-05-14T17:04:44.619Z,100400.53
2023-05-14T17:07:11.427Z,100387.25
2023-05-14T17:09:38.051Z,100403.00
2023-05-14T17:12:04.902Z,100405.78
2023-05-14T17:14:31.534Z,100394.47
2023-05-14T17:16:58.219Z,100397.59
2023-05-14T17:19:24.904Z,100400.72
2023-05-14T17:21:51.546Z,100395.28
2023-05-14T17:24:18.297Z,100405.91
2023-05-14T17:26:44.966Z,100408.22
2023-05-14T17:29:11.585Z,100404.47
2023-05-14T17:31:38.465Z,100395.09
2023-05-14T17:34:05.114Z,100381.81
2023-05-14T17:36:31.829Z,100385.28
2023-05-14T17:38:58.531Z,100362.31
2023-05-14T17:41:25.291Z,100376.25
2023-05-14T17:43:51.920Z,100368.84
2023-05-14T17:46:18.820Z,100379.03
2023-05-14T17:48:45.436Z,100363.94
2023-05-14T17:51:12.089Z,100355.72
2023-05-14T17:53:38.695Z,100356.88
2023-05-14T17:56:05.464Z,100354.41
2023-05-14T17:58:32.244Z,100367.22
2023-05-14T18:00:58.878Z,100351.47
2023-05-14T18:03:25.821Z,100350.66
2023-05-14T18:05:52.600Z,100347.53
2023-05-14T18:08:19.228Z,100351.16
2023-05-14T18:10:45.979Z,100340.00
2023-05-14T18:13:12.620Z,100343.44
2023-05-14T18:15:39.306Z,100345.25
2023-05-14T18:18:06.254Z,100351.31
2023-05-14T18:20:33.538Z,100356.88
2023-05-14T18:23:02.574Z,100342.59
2023-05-14T18:25:29.449Z,100343.25
2023-05-14T18:27:56.332Z,100345.59
2023-05-14T18:30:23.209Z,100345.59
2023-05-14T18:32:50.265Z,100348.84
2023-05-14T18:35:16.963Z,100343.09
2023-05-14T18:37:43.634Z,100349.50
2023-05-14T18:40:10.582Z,100353.28
2023-05-14T18:42:37.253Z,100345.41
2023-05-14T18:45:04.542Z,100353.75
2023-05-14T18:47:32.052Z,100355.56
2023-05-14T18:49:59.010Z,100347.72
2023-05-14T18:52:25.926Z,100343.44
2023-05-14T18:54:52.816Z,100347.53
2023-05-14T18:57:19.629Z,100339.00
2023-05-14T18:59:46.405Z,100340.66
2023-05-14T19:02:13.093Z,100350.97
2023-05-14T19:04:51.065Z,100350.50
2023-05-14T19:07:19.666Z,100354.91
2023-05-14T19:09:46.362Z,100344.44
2023-05-14T19:12:13.561Z,100342.13
2023-05-14T19:14:40.209Z,100346.22
2023-05-14T19:17:06.985Z,100326.22
2023-05-14T19:19:33.717Z,100324.41
2023-05-14T19:22:00.467Z,100320.47
2023-05-14T19:24:27.101Z,100298.69
2023-05-14T19:26:53.789Z,100307.53
2023-05-14T19:29:20.375Z,100319.19
2023-05-14T19:31:47.120Z,100313.75
2023-05-14T19:34:13.832Z,100315.25
2023-05-14T19:36:40.508Z,100310.47
2023-05-14T19:39:07.182Z,100303.59
2023-05-14T19:41:33.858Z,100303.28
2023-05-14T19:44:00.549Z,100294.91
2023-05-14T19:46:27.520Z,100279.31
2023-05-14T19:48:54.138Z,100291.63
2023-05-14T19:51:20.774Z,100295.22
2023-05-14T19:53:47.355Z,100299.31
2023-05-14T19:56:13.975Z,100293.91
2023-05-14T19:58:40.771Z,100290.97
2023-05-14T20:01:07.444Z,100285.41
2023-05-14T20:03:34.175Z,100277.53
2023-05-14T20:06:00.970Z,100276.38
2023-05-14T20:08:27.756Z,100270.66
2023-05-14T20:10:54.547Z,100261.66
2023-05-14T20:13:23.112Z,100258.19
2023-05-14T20:15:51.235Z,100253.28
2023-05-14T20:18:17.995Z,100241.78
2023-05-14T20:20:44.640Z,100230.66
2023-05-14T20:23:11.365Z,100227.06
2023-05-14T20:25:38.029Z,100225.09
2023-05-14T20:28:04.802Z,100203.44
2023-05-14T20:30:31.437Z,100214.13
2023-05-14T20:32:58.308Z,100216.06
2023-05-14T20:35:25.300Z,100208.56
2023-05-14T20:37:52.123Z,100201.50
2023-05-14T20:40:19.024Z,100205.28
2023-05-14T20:42:45.681Z,100201.81
2023-05-14T20:45:12.282Z,100199.03
2023-05-14T20:47:40.351Z,100195.75
2023-05-14T20:50:07.609Z,100189.22
2023-05-14T20:52:34.357Z,100186.94
2023-05-14T20:55:02.008Z,100190.03
2023-05-14T20:57:29.055Z,100185.94
2023-05-14T20:59:55.667Z,100189.88
2023-05-14T21:02:22.483Z,100186.59
2023-05-14T21:04:49.339Z,100182.19
2023-05-14T21:07:16.097Z,100184.16
2023-05-14T21:09:43.106Z,100183.81
2023-05-14T21:12:10.093Z,100184.31
2023-05-14T21:14:36.915Z,100176.78
2023-05-14T21:17:03.570Z,100176.09
2023-05-14T21:19:30.252Z,100182.50
2023-05-14T21:21:56.895Z,100186.09
2023-05-14T21:24:23.518Z,100184.97
2023-05-14T21:26:51.688Z,100183.00
2023-05-14T21:29:20.049Z,100185.28
2023-05-14T21:31:46.797Z,100182.50
2023-05-14T21:34:13.580Z,100171.03
2023-05-14T21:36:40.326Z,100154.16
2023-05-14T21:39:06.976Z,100157.78
2023-05-14T21:41:33.652Z,100171.34
2023-05-14T21:44:00.263Z,100170.41
2023-05-14T21:46:27.157Z,100165.94
2023-05-14T21:48:54.051Z,100157.94
2023-05-14T21:51:20.829Z,100155.63
2023-05-14T21:53:47.522Z,100151.88
2023-05-14T21:56:15.109Z,100147.47
2023-05-14T21:58:41.902Z,100148.28
2023-05-14T22:01:08.543Z,100148.94
2023-05-14T22:03:35.617Z,100142.22
2023-05-14T22:06:02.309Z,100141.91
2023-05-14T22:08:28.980Z,100144.19
2023-05-14T22:10:55.778Z,100145.34
2023-05-14T22:13:22.413Z,100142.88
2023-05-14T22:15:51.296Z,100132.88
2023-05-14T22:18:19.957Z,100136.34
2023-05-14T22:20:46.698Z,100127.13
2023-05-14T22:23:13.409Z,100124.84
2023-05-14T22:25:41.308Z,100121.75
2023-05-14T22:28:07.953Z,100109.63
2023-05-14T22:30:34.590Z,100109.81
2023-05-14T22:33:01.328Z,100106.19
2023-05-14T22:35:28.031Z,100109.63
2023-05-14T22:37:54.682Z,100115.19
2023-05-14T22:40:21.317Z,100113.72
2023-05-14T22:42:48.249Z,100110.28
2023-05-14T22:45:15.050Z,100104.72
2023-05-14T22:47:41.925Z,100110.28
2023-05-14T22:50:09.224Z,100108.00
2023-05-14T22:52:35.998Z,100100.13
2023-05-14T22:55:02.735Z,100107.00
2023-05-14T22:57:29.518Z,100105.03
2023-05-14T22:59:56.119Z,100095.69
2023-05-14T23:02:22.812Z,100096.03
2023-05-14T23:04:49.564Z,100089.81
2023-05-14T23:07:16.247Z,100093.41
2023-05-14T23:09:42.863Z,100081.13
2023-05-14T23:12:09.755Z,100089.00
2023-05-14T23:14:36.356Z,100084.25
2023-05-14T23:17:02.968Z,100079.50
2023-05-14T23:19:29.772Z,100083.09
2023-05-14T23:21:56.453Z,100071.81
2023-05-14T23:24:23.127Z,100077.88
2023-05-14T23:26:49.855Z,100079.16
2023-05-14T23:29:16.445Z,100074.25
2023-05-14T23:31:43.059Z,100072.13
2023-05-14T23:34:09.685Z,100071.66
2023-05-14T23:36:36.438Z,100072.31
2023-05-14T23:39:03.090Z,100064.91
2023-05-14T23:41:29.685Z,100064.91
2023-05-14T23:43:56.311Z,100060.84
2023-05-14T23:46:23.602Z,100059.22
2023-05-14T23:48:53.522Z,100055.25
2023-05-14T23:51:20.158Z,100045.28
2023-05-14T23:53:46.760Z,100032.34
2023-05-14T23:56:13.418Z,100038.25
2023-05-14T23:58:40.241Z,100031.69
